sensor_id;sensor_type;location;lat;lon;timestamp;temperature;humidity
23719;DHT22;43322;52.230;5.702;2023-07-13T00:00:47;16.60;99.90
23719;DHT22;43322;52.230;5.702;2023-07-13T00:03:14;16.60;99.90
23719;DHT22;43322;52.230;5.702;2023-07-13T00:05:44;16.50;99.90
23719;DHT22;43322;52.230;5.702;2023-07-13T00:08:11;16.40;99.90
23719;DHT22;43322;52.230;5.702;2023-07-13T00:10:41;16.40;99.90
23719;DHT22;43322;52.230;5.702;2023-07-13T00:13:09;16.40;99.90
23719;DHT22;43322;52.230;5.702;2023-07-13T00:15:36;16.40;99.90
23719;DHT22;43322;52.230;5.702;2023-07-13T00:18:03;16.90;99.90
23719;DHT22;43322;52.230;5.702;2023-07-13T00:20:30;16.30;99.90
23719;DHT22;43322;52.230;5.702;2023-07-13T00:22:59;16.40;99.90
23719;DHT22;43322;52.230;5.702;2023-07-13T00:25:26;16.40;99.90
23719;DHT22;43322;52.230;5.702;2023-07-13T00:27:53;16.50;99.90
23719;DHT22;43322;52.230;5.702;2023-07-13T00:30:21;16.40;99.90
23719;DHT22;43322;52.230;5.702;2023-07-13T00:32:48;16.40;99.90
23719;DHT22;43322;52.230;5.702;2023-07-13T00:35:16;16.40;99.90
23719;DHT22;43322;52.230;5.702;2023-07-13T00:37:43;16.40;99.90
23719;DHT22;43322;52.230;5.702;2023-07-13T00:40:13;16.30;99.90
23719;DHT22;43322;52.230;5.702;2023-07-13T00:42:40;16.40;99.90
23719;DHT22;43322;52.230;5.702;2023-07-13T00:48:18;16.30;99.90
23719;DHT22;43322;52.230;5.702;2023-07-13T00:50:49;16.30;99.90
23719;DHT22;43322;52.230;5.702;2023-07-13T00:53:17;16.30;99.90
23719;DHT22;43322;52.230;5.702;2023-07-13T00:55:46;16.30;99.90
23719;DHT22;43322;52.230;5.702;2023-07-13T00:58:13;16.60;99.90
23719;DHT22;43322;52.230;5.702;2023-07-13T01:00:40;16.30;99.90
23719;DHT22;43322;52.230;5.702;2023-07-13T01:03:08;16.20;99.90
23719;DHT22;43322;52.230;5.702;2023-07-13T01:05:36;16.20;99.90
23719;DHT22;43322;52.230;5.702;2023-07-13T01:08:04;16.20;99.90
23719;DHT22;43322;52.230;5.702;2023-07-13T01:10:32;16.20;99.90
23719;DHT22;43322;52.230;5.702;2023-07-13T01:13:05;16.20;99.90
23719;DHT22;43322;52.230;5.702;2023-07-13T01:15:37;16.10;99.90
23719;DHT22;43322;52.230;5.702;2023-07-13T01:18:06;16.20;99.90
23719;DHT22;43322;52.230;5.702;2023-07-13T01:20:33;16.20;99.90
23719;DHT22;43322;52.230;5.702;2023-07-13T01:23:04;16.20;99.90
23719;DHT22;43322;52.230;5.702;2023-07-13T01:25:33;16.10;99.90
23719;DHT22;43322;52.230;5.702;2023-07-13T01:28:00;16.10;99.90
23719;DHT22;43322;52.230;5.702;2023-07-13T01:30:27;16.10;99.90
23719;DHT22;43322;52.230;5.702;2023-07-13T01:32:54;16.00;99.90
23719;DHT22;43322;52.230;5.702;2023-07-13T01:35:21;16.10;99.90
23719;DHT22;43322;52.230;5.702;2023-07-13T01:37:48;16.10;99.90
23719;DHT22;43322;52.230;5.702;2023-07-13T01:40:17;16.00;99.90
23719;DHT22;43322;52.230;5.702;2023-07-13T01:42:44;15.90;99.90
23719;DHT22;43322;52.230;5.702;2023-07-13T01:45:10;15.90;99.90
23719;DHT22;43322;52.230;5.702;2023-07-13T01:47:37;15.90;99.90
23719;DHT22;43322;52.230;5.702;2023-07-13T01:50:05;15.90;99.90
23719;DHT22;43322;52.230;5.702;2023-07-13T01:52:32;15.80;99.90
23719;DHT22;43322;52.230;5.702;2023-07-13T01:54:59;15.80;99.90
23719;DHT22;43322;52.230;5.702;2023-07-13T01:57:27;15.70;99.90
23719;DHT22;43322;52.230;5.702;2023-07-13T01:59:54;15.70;99.90
23719;DHT22;43322;52.230;5.702;2023-07-13T02:02:21;15.70;99.90
23719;DHT22;43322;52.230;5.702;2023-07-13T02:04:48;15.80;99.90
23719;DHT22;43322;52.230;5.702;2023-07-13T02:07:15;15.60;99.90
23719;DHT22;43322;52.230;5.702;2023-07-13T02:09:42;15.60;99.90
23719;DHT22;43322;52.230;5.702;2023-07-13T02:12:09;15.60;99.90
23719;DHT22;43322;52.230;5.702;2023-07-13T02:14:37;15.60;99.90
23719;DHT22;43322;52.230;5.702;2023-07-13T02:17:04;15.60;99.90
23719;DHT22;43322;52.230;5.702;2023-07-13T02:19:31;15.60;99.90
23719;DHT22;43322;52.230;5.702;2023-07-13T02:21:58;15.60;99.90
23719;DHT22;43322;52.230;5.702;2023-07-13T02:24:25;15.60;99.90
23719;DHT22;43322;52.230;5.702;2023-07-13T02:26:53;15.50;99.90
23719;DHT22;43322;52.230;5.702;2023-07-13T02:29:20;15.40;99.90
23719;DHT22;43322;52.230;5.702;2023-07-13T02:31:48;15.50;99.90
23719;DHT22;43322;52.230;5.702;2023-07-13T02:34:15;15.40;99.90
23719;DHT22;43322;52.230;5.702;2023-07-13T02:36:42;15.40;99.90
23719;DHT22;43322;52.230;5.702;2023-07-13T02:39:09;15.40;99.90
23719;DHT22;43322;52.230;5.702;2023-07-13T02:41:37;15.40;99.90
23719;DHT22;43322;52.230;5.702;2023-07-13T02:44:05;15.40;99.90
23719;DHT22;43322;52.230;5.702;2023-07-13T02:46:35;15.40;99.90
23719;DHT22;43322;52.230;5.702;2023-07-13T02:49:04;15.40;99.90
23719;DHT22;43322;52.230;5.702;2023-07-13T02:51:31;15.30;99.90
23719;DHT22;43322;52.230;5.702;2023-07-13T02:53:59;15.20;99.90
23719;DHT22;43322;52.230;5.702;2023-07-13T02:56:28;15.20;99.90
23719;DHT22;43322;52.230;5.702;2023-07-13T02:58:56;15.30;99.90
23719;DHT22;43322;52.230;5.702;2023-07-13T03:01:24;15.20;99.90
23719;DHT22;43322;52.230;5.702;2023-07-13T03:03:51;15.20;99.90
23719;DHT22;43322;52.230;5.702;2023-07-13T03:06:20;15.20;99.90
23719;DHT22;43322;52.230;5.702;2023-07-13T03:08:48;15.20;99.90
23719;DHT22;43322;52.230;5.702;2023-07-13T03:11:18;15.20;99.90
23719;DHT22;43322;52.230;5.702;2023-07-13T03:13:46;15.20;99.90
23719;DHT22;43322;52.230;5.702;2023-07-13T03:16:14;15.10;99.90
23719;DHT22;43322;52.230;5.702;2023-07-13T03:18:42;15.00;99.90
23719;DHT22;43322;52.230;5.702;2023-07-13T03:21:10;15.00;99.90
23719;DHT22;43322;52.230;5.702;2023-07-13T03:23:38;15.00;99.90
23719;DHT22;43322;52.230;5.702;2023-07-13T03:26:08;15.00;99.90
23719;DHT22;43322;52.230;5.702;2023-07-13T03:28:36;15.00;99.90
23719;DHT22;43322;52.230;5.702;2023-07-13T03:31:04;14.90;99.90
23719;DHT22;43322;52.230;5.702;2023-07-13T03:33:31;14.90;99.90
23719;DHT22;43322;52.230;5.702;2023-07-13T03:35:59;15.00;99.90
23719;DHT22;43322;52.230;5.702;2023-07-13T03:38:26;15.00;99.90
23719;DHT22;43322;52.230;5.702;2023-07-13T03:40:54;15.00;99.90
23719;DHT22;43322;52.230;5.702;2023-07-13T03:43:21;15.00;99.90
23719;DHT22;43322;52.230;5.702;2023-07-13T03:45:48;14.90;99.90
23719;DHT22;43322;52.230;5.702;2023-07-13T03:48:15;14.90;99.90
23719;DHT22;43322;52.230;5.702;2023-07-13T03:50:42;14.90;99.90
23719;DHT22;43322;52.230;5.702;2023-07-13T03:53:09;14.90;99.90
23719;DHT22;43322;52.230;5.702;2023-07-13T03:55:36;14.90;99.90
23719;DHT22;43322;52.230;5.702;2023-07-13T03:58:30;15.00;99.90
23719;DHT22;43322;52.230;5.702;2023-07-13T04:00:58;14.90;99.90
23719;DHT22;43322;52.230;5.702;2023-07-13T04:03:26;14.90;99.90
23719;DHT22;43322;52.230;5.702;2023-07-13T04:05:54;14.90;99.90
23719;DHT22;43322;52.230;5.702;2023-07-13T04:08:25;14.90;99.90
23719;DHT22;43322;52.230;5.702;2023-07-13T04:10:53;15.00;99.90
23719;DHT22;43322;52.230;5.702;2023-07-13T04:13:19;15.00;99.90
23719;DHT22;43322;52.230;5.702;2023-07-13T04:15:48;15.00;99.90
23719;DHT22;43322;52.230;5.702;2023-07-13T04:18:15;15.50;99.90
23719;DHT22;43322;52.230;5.702;2023-07-13T04:20:42;15.00;99.90
23719;DHT22;43322;52.230;5.702;2023-07-13T04:23:09;15.00;99.90
23719;DHT22;43322;52.230;5.702;2023-07-13T04:25:36;15.00;99.90
23719;DHT22;43322;52.230;5.702;2023-07-13T04:28:04;15.00;99.90
23719;DHT22;43322;52.230;5.702;2023-07-13T04:30:31;15.10;99.90
23719;DHT22;43322;52.230;5.702;2023-07-13T04:32:59;15.20;99.90
23719;DHT22;43322;52.230;5.702;2023-07-13T04:35:26;15.20;99.90
23719;DHT22;43322;52.230;5.702;2023-07-13T04:37:53;15.20;99.90
23719;DHT22;43322;52.230;5.702;2023-07-13T04:40:20;15.20;99.90
23719;DHT22;43322;52.230;5.702;2023-07-13T04:42:47;15.20;99.90
23719;DHT22;43322;52.230;5.702;2023-07-13T04:45:14;15.20;99.90
23719;DHT22;43322;52.230;5.702;2023-07-13T04:47:42;15.20;99.90
23719;DHT22;43322;52.230;5.702;2023-07-13T04:50:13;15.30;99.90
23719;DHT22;43322;52.230;5.702;2023-07-13T04:52:45;15.40;99.90
23719;DHT22;43322;52.230;5.702;2023-07-13T04:55:12;15.40;99.90
23719;DHT22;43322;52.230;5.702;2023-07-13T04:57:39;15.50;99.90
23719;DHT22;43322;52.230;5.702;2023-07-13T05:00:07;15.50;99.90
23719;DHT22;43322;52.230;5.702;2023-07-13T05:02:34;15.50;99.90
23719;DHT22;43322;52.230;5.702;2023-07-13T05:05:01;15.50;99.90
23719;DHT22;43322;52.230;5.702;2023-07-13T05:07:30;15.60;99.90
23719;DHT22;43322;52.230;5.702;2023-07-13T05:09:58;15.70;99.90
23719;DHT22;43322;52.230;5.702;2023-07-13T05:12:25;15.70;99.90
23719;DHT22;43322;52.230;5.702;2023-07-13T05:14:52;15.80;99.90
23719;DHT22;43322;52.230;5.702;2023-07-13T05:17:19;15.80;99.90
23719;DHT22;43322;52.230;5.702;2023-07-13T05:19:46;15.90;99.90
23719;DHT22;43322;52.230;5.702;2023-07-13T05:22:13;15.90;99.90
23719;DHT22;43322;52.230;5.702;2023-07-13T05:24:41;16.00;99.90
23719;DHT22;43322;52.230;5.702;2023-07-13T05:27:08;16.00;99.90
23719;DHT22;43322;52.230;5.702;2023-07-13T05:29:35;16.00;99.90
23719;DHT22;43322;52.230;5.702;2023-07-13T05:32:03;16.10;99.90
23719;DHT22;43322;52.230;5.702;2023-07-13T05:34:30;16.10;99.90
23719;DHT22;43322;52.230;5.702;2023-07-13T05:36:56;16.10;99.90
23719;DHT22;43322;52.230;5.702;2023-07-13T05:39:23;16.20;99.90
23719;DHT22;43322;52.230;5.702;2023-07-13T05:41:53;16.30;99.90
23719;DHT22;43322;52.230;5.702;2023-07-13T05:44:20;16.30;99.90
23719;DHT22;43322;52.230;5.702;2023-07-13T05:46:47;16.40;99.90
23719;DHT22;43322;52.230;5.702;2023-07-13T05:49:14;16.40;99.90
23719;DHT22;43322;52.230;5.702;2023-07-13T05:51:41;16.50;99.90
23719;DHT22;43322;52.230;5.702;2023-07-13T05:54:08;16.60;99.90
23719;DHT22;43322;52.230;5.702;2023-07-13T05:56:35;16.60;99.90
23719;DHT22;43322;52.230;5.702;2023-07-13T05:59:03;16.70;99.90
23719;DHT22;43322;52.230;5.702;2023-07-13T06:01:30;16.80;99.90
23719;DHT22;43322;52.230;5.702;2023-07-13T06:03:57;16.80;99.90
23719;DHT22;43322;52.230;5.702;2023-07-13T06:06:24;16.90;99.90
23719;DHT22;43322;52.230;5.702;2023-07-13T06:08:52;16.90;99.90
23719;DHT22;43322;52.230;5.702;2023-07-13T06:11:20;16.90;99.90
23719;DHT22;43322;52.230;5.702;2023-07-13T06:13:48;16.90;99.90
23719;DHT22;43322;52.230;5.702;2023-07-13T06:16:16;16.90;99.90
23719;DHT22;43322;52.230;5.702;2023-07-13T06:18:44;16.90;99.90
23719;DHT22;43322;52.230;5.702;2023-07-13T06:21:12;17.00;99.90
23719;DHT22;43322;52.230;5.702;2023-07-13T06:23:40;17.00;99.90
23719;DHT22;43322;52.230;5.702;2023-07-13T06:26:07;17.00;99.90
23719;DHT22;43322;52.230;5.702;2023-07-13T06:28:35;17.10;99.90
23719;DHT22;43322;52.230;5.702;2023-07-13T06:31:04;17.10;99.90
23719;DHT22;43322;52.230;5.702;2023-07-13T06:33:32;17.10;99.90
23719;DHT22;43322;52.230;5.702;2023-07-13T06:35:59;17.20;99.90
23719;DHT22;43322;52.230;5.702;2023-07-13T06:38:26;17.50;99.90
23719;DHT22;43322;52.230;5.702;2023-07-13T06:40:53;17.70;99.90
23719;DHT22;43322;52.230;5.702;2023-07-13T06:43:20;17.90;99.90
23719;DHT22;43322;52.230;5.702;2023-07-13T06:45:48;18.10;99.90
23719;DHT22;43322;52.230;5.702;2023-07-13T06:48:17;18.30;99.90
23719;DHT22;43322;52.230;5.702;2023-07-13T06:50:47;18.10;99.90
23719;DHT22;43322;52.230;5.702;2023-07-13T06:53:15;18.10;99.90
23719;DHT22;43322;52.230;5.702;2023-07-13T06:55:44;18.10;99.90
23719;DHT22;43322;52.230;5.702;2023-07-13T06:58:11;18.00;99.90
23719;DHT22;43322;52.230;5.702;2023-07-13T07:00:38;18.00;99.90
23719;DHT22;43322;52.230;5.702;2023-07-13T07:03:06;18.10;99.90
23719;DHT22;43322;52.230;5.702;2023-07-13T07:05:33;18.10;99.90
23719;DHT22;43322;52.230;5.702;2023-07-13T07:08:01;18.10;99.90
23719;DHT22;43322;52.230;5.702;2023-07-13T07:10:30;18.10;99.90
23719;DHT22;43322;52.230;5.702;2023-07-13T07:12:57;18.00;99.90
23719;DHT22;43322;52.230;5.702;2023-07-13T07:15:24;17.80;99.90
23719;DHT22;43322;52.230;5.702;2023-07-13T07:17:51;18.10;99.90
23719;DHT22;43322;52.230;5.702;2023-07-13T07:20:18;18.30;99.90
23719;DHT22;43322;52.230;5.702;2023-07-13T07:22:46;18.30;99.90
23719;DHT22;43322;52.230;5.702;2023-07-13T07:25:14;18.30;99.90
23719;DHT22;43322;52.230;5.702;2023-07-13T07:27:41;18.30;99.90
23719;DHT22;43322;52.230;5.702;2023-07-13T07:30:09;18.30;99.90
23719;DHT22;43322;52.230;5.702;2023-07-13T07:32:36;18.30;99.90
23719;DHT22;43322;52.230;5.702;2023-07-13T07:35:04;18.20;99.90
23719;DHT22;43322;52.230;5.702;2023-07-13T07:37:31;18.30;99.90
23719;DHT22;43322;52.230;5.702;2023-07-13T07:39:58;18.40;99.90
23719;DHT22;43322;52.230;5.702;2023-07-13T07:42:27;18.60;99.90
23719;DHT22;43322;52.230;5.702;2023-07-13T07:44:54;18.80;99.90
23719;DHT22;43322;52.230;5.702;2023-07-13T07:47:21;18.80;99.90
23719;DHT22;43322;52.230;5.702;2023-07-13T07:49:49;18.80;99.90
23719;DHT22;43322;52.230;5.702;2023-07-13T07:52:16;18.90;99.90
23719;DHT22;43322;52.230;5.702;2023-07-13T07:54:43;18.90;99.90
23719;DHT22;43322;52.230;5.702;2023-07-13T07:57:10;18.90;99.90
23719;DHT22;43322;52.230;5.702;2023-07-13T07:59:39;18.80;99.90
23719;DHT22;43322;52.230;5.702;2023-07-13T08:02:08;18.70;99.90
23719;DHT22;43322;52.230;5.702;2023-07-13T08:04:35;18.60;99.90
23719;DHT22;43322;52.230;5.702;2023-07-13T08:07:02;18.50;99.90
23719;DHT22;43322;52.230;5.702;2023-07-13T08:09:29;18.40;99.90
23719;DHT22;43322;52.230;5.702;2023-07-13T08:11:56;18.40;99.90
23719;DHT22;43322;52.230;5.702;2023-07-13T08:14:23;18.40;99.90
23719;DHT22;43322;52.230;5.702;2023-07-13T08:16:52;18.50;99.90
23719;DHT22;43322;52.230;5.702;2023-07-13T08:19:19;18.50;99.90
23719;DHT22;43322;52.230;5.702;2023-07-13T08:21:46;18.50;99.90
23719;DHT22;43322;52.230;5.702;2023-07-13T08:24:14;18.60;99.90
23719;DHT22;43322;52.230;5.702;2023-07-13T08:26:44;18.60;99.90
23719;DHT22;43322;52.230;5.702;2023-07-13T08:29:11;18.70;99.90
23719;DHT22;43322;52.230;5.702;2023-07-13T08:31:37;18.80;99.90
23719;DHT22;43322;52.230;5.702;2023-07-13T08:34:06;18.70;99.90
23719;DHT22;43322;52.230;5.702;2023-07-13T08:36:33;18.70;99.90
23719;DHT22;43322;52.230;5.702;2023-07-13T08:39:00;18.60;99.90
23719;DHT22;43322;52.230;5.702;2023-07-13T08:41:27;18.90;99.90
23719;DHT22;43322;52.230;5.702;2023-07-13T08:43:57;19.20;99.90
23719;DHT22;43322;52.230;5.702;2023-07-13T08:46:28;19.40;99.90
23719;DHT22;43322;52.230;5.702;2023-07-13T08:48:58;19.30;99.90
23719;DHT22;43322;52.230;5.702;2023-07-13T08:51:34;19.50;99.90
23719;DHT22;43322;52.230;5.702;2023-07-13T08:54:04;19.40;99.90
23719;DHT22;43322;52.230;5.702;2023-07-13T08:56:32;19.40;99.90
23719;DHT22;43322;52.230;5.702;2023-07-13T08:59:03;19.10;99.90
23719;DHT22;43322;52.230;5.702;2023-07-13T09:01:45;19.10;99.90
23719;DHT22;43322;52.230;5.702;2023-07-13T09:04:16;19.60;99.90
23719;DHT22;43322;52.230;5.702;2023-07-13T09:07:00;20.00;99.90
23719;DHT22;43322;52.230;5.702;2023-07-13T09:09:39;19.90;99.90
23719;DHT22;43322;52.230;5.702;2023-07-13T09:12:14;19.60;99.90
23719;DHT22;43322;52.230;5.702;2023-07-13T09:14:45;19.40;99.90
23719;DHT22;43322;52.230;5.702;2023-07-13T09:17:17;19.20;99.90
23719;DHT22;43322;52.230;5.702;2023-07-13T09:19:48;19.00;99.90
23719;DHT22;43322;52.230;5.702;2023-07-13T09:22:19;18.70;99.90
23719;DHT22;43322;52.230;5.702;2023-07-13T09:24:54;18.40;99.90
23719;DHT22;43322;52.230;5.702;2023-07-13T09:27:25;18.00;99.90
23719;DHT22;43322;52.230;5.702;2023-07-13T09:30:10;17.90;99.90
23719;DHT22;43322;52.230;5.702;2023-07-13T09:32:45;17.80;99.90
23719;DHT22;43322;52.230;5.702;2023-07-13T09:35:19;17.90;99.90
23719;DHT22;43322;52.230;5.702;2023-07-13T09:37:48;18.10;99.90
23719;DHT22;43322;52.230;5.702;2023-07-13T09:40:21;18.40;99.90
23719;DHT22;43322;52.230;5.702;2023-07-13T09:42:52;18.80;99.90
23719;DHT22;43322;52.230;5.702;2023-07-13T09:45:27;19.30;99.90
23719;DHT22;43322;52.230;5.702;2023-07-13T09:47:59;20.00;99.90
23719;DHT22;43322;52.230;5.702;2023-07-13T09:50:29;20.30;99.90
23719;DHT22;43322;52.230;5.702;2023-07-13T09:52:58;20.80;99.90
23719;DHT22;43322;52.230;5.702;2023-07-13T09:55:31;20.80;99.90
23719;DHT22;43322;52.230;5.702;2023-07-13T09:58:03;21.00;99.90
23719;DHT22;43322;52.230;5.702;2023-07-13T10:00:31;21.30;99.90
23719;DHT22;43322;52.230;5.702;2023-07-13T10:03:01;20.90;99.90
23719;DHT22;43322;52.230;5.702;2023-07-13T10:05:37;21.10;99.90
23719;DHT22;43322;52.230;5.702;2023-07-13T10:08:08;21.60;99.90
23719;DHT22;43322;52.230;5.702;2023-07-13T10:10:41;22.10;99.90
23719;DHT22;43322;52.230;5.702;2023-07-13T10:13:24;22.40;99.90
23719;DHT22;43322;52.230;5.702;2023-07-13T10:15:53;22.60;99.90
23719;DHT22;43322;52.230;5.702;2023-07-13T10:18:21;22.20;99.90
23719;DHT22;43322;52.230;5.702;2023-07-13T10:20:50;21.00;99.90
23719;DHT22;43322;52.230;5.702;2023-07-13T10:23:21;20.30;99.90
23719;DHT22;43322;52.230;5.702;2023-07-13T10:25:50;19.80;99.90
23719;DHT22;43322;52.230;5.702;2023-07-13T10:28:25;19.50;99.90
23719;DHT22;43322;52.230;5.702;2023-07-13T10:30:53;19.40;99.90
23719;DHT22;43322;52.230;5.702;2023-07-13T10:33:23;19.50;99.90
23719;DHT22;43322;52.230;5.702;2023-07-13T10:35:52;20.10;99.90
23719;DHT22;43322;52.230;5.702;2023-07-13T10:38:23;21.00;99.90
23719;DHT22;43322;52.230;5.702;2023-07-13T10:40:56;21.20;99.90
23719;DHT22;43322;52.230;5.702;2023-07-13T10:43:27;22.10;99.90
23719;DHT22;43322;52.230;5.702;2023-07-13T10:45:55;23.50;99.90
23719;DHT22;43322;52.230;5.702;2023-07-13T10:48:23;24.70;99.90
23719;DHT22;43322;52.230;5.702;2023-07-13T10:50:52;25.10;99.90
23719;DHT22;43322;52.230;5.702;2023-07-13T10:53:27;25.10;99.90
23719;DHT22;43322;52.230;5.702;2023-07-13T10:55:58;24.30;99.90
23719;DHT22;43322;52.230;5.702;2023-07-13T10:58:31;23.10;99.90
23719;DHT22;43322;52.230;5.702;2023-07-13T11:01:08;22.70;99.90
23719;DHT22;43322;52.230;5.702;2023-07-13T11:03:37;23.60;99.90
23719;DHT22;43322;52.230;5.702;2023-07-13T11:06:08;24.10;99.90
23719;DHT22;43322;52.230;5.702;2023-07-13T11:08:38;25.20;99.90
23719;DHT22;43322;52.230;5.702;2023-07-13T11:11:34;25.20;99.90
23719;DHT22;43322;52.230;5.702;2023-07-13T11:14:02;23.80;99.90
23719;DHT22;43322;52.230;5.702;2023-07-13T11:16:35;23.60;99.90
23719;DHT22;43322;52.230;5.702;2023-07-13T11:22:16;23.70;99.90
23719;DHT22;43322;52.230;5.702;2023-07-13T11:25:01;24.20;99.90
23719;DHT22;43322;52.230;5.702;2023-07-13T11:27:37;24.80;99.90
23719;DHT22;43322;52.230;5.702;2023-07-13T11:30:31;25.70;99.90
23719;DHT22;43322;52.230;5.702;2023-07-13T11:33:12;24.90;99.90
23719;DHT22;43322;52.230;5.702;2023-07-13T11:35:57;23.50;99.90
23719;DHT22;43322;52.230;5.702;2023-07-13T11:38:30;22.50;99.90
23719;DHT22;43322;52.230;5.702;2023-07-13T11:41:02;21.60;99.90
23719;DHT22;43322;52.230;5.702;2023-07-13T11:43:30;20.90;99.90
23719;DHT22;43322;52.230;5.702;2023-07-13T11:46:12;20.30;99.90
23719;DHT22;43322;52.230;5.702;2023-07-13T11:48:39;20.10;99.90
23719;DHT22;43322;52.230;5.702;2023-07-13T11:51:09;21.00;99.90
23719;DHT22;43322;52.230;5.702;2023-07-13T11:53:50;22.70;99.90
23719;DHT22;43322;52.230;5.702;2023-07-13T11:56:19;22.70;99.90
23719;DHT22;43322;52.230;5.702;2023-07-13T11:58:49;22.50;99.90
23719;DHT22;43322;52.230;5.702;2023-07-13T12:01:20;22.80;99.90
23719;DHT22;43322;52.230;5.702;2023-07-13T12:03:48;22.30;99.90
23719;DHT22;43322;52.230;5.702;2023-07-13T12:06:26;22.00;99.90
23719;DHT22;43322;52.230;5.702;2023-07-13T12:08:56;21.50;99.90
23719;DHT22;43322;52.230;5.702;2023-07-13T12:11:26;21.00;99.90
23719;DHT22;43322;52.230;5.702;2023-07-13T12:13:53;20.70;99.90
23719;DHT22;43322;52.230;5.702;2023-07-13T12:16:27;20.90;99.90
23719;DHT22;43322;52.230;5.702;2023-07-13T12:18:55;22.50;99.90
23719;DHT22;43322;52.230;5.702;2023-07-13T12:21:29;24.10;99.90
23719;DHT22;43322;52.230;5.702;2023-07-13T12:23:56;24.60;99.90
23719;DHT22;43322;52.230;5.702;2023-07-13T12:26:25;23.90;99.90
23719;DHT22;43322;52.230;5.702;2023-07-13T12:28:53;23.20;99.90
23719;DHT22;43322;52.230;5.702;2023-07-13T12:31:30;23.00;99.90
23719;DHT22;43322;52.230;5.702;2023-07-13T12:33:59;22.60;99.90
23719;DHT22;43322;52.230;5.702;2023-07-13T12:36:31;22.20;99.90
23719;DHT22;43322;52.230;5.702;2023-07-13T12:39:04;22.10;99.90
23719;DHT22;43322;52.230;5.702;2023-07-13T12:41:33;21.90;99.90
23719;DHT22;43322;52.230;5.702;2023-07-13T12:44:01;22.70;99.90
23719;DHT22;43322;52.230;5.702;2023-07-13T12:46:28;23.60;99.90
23719;DHT22;43322;52.230;5.702;2023-07-13T12:48:56;24.40;99.90
23719;DHT22;43322;52.230;5.702;2023-07-13T12:51:26;23.90;99.90
23719;DHT22;43322;52.230;5.702;2023-07-13T12:53:57;23.30;99.90
23719;DHT22;43322;52.230;5.702;2023-07-13T12:56:26;22.80;99.90
23719;DHT22;43322;52.230;5.702;2023-07-13T12:58:58;22.20;99.90
23719;DHT22;43322;52.230;5.702;2023-07-13T13:01:28;22.00;99.90
23719;DHT22;43322;52.230;5.702;2023-07-13T13:03:56;22.80;99.90
23719;DHT22;43322;52.230;5.702;2023-07-13T13:06:26;23.80;99.90
23719;DHT22;43322;52.230;5.702;2023-07-13T13:08:54;23.40;99.90
23719;DHT22;43322;52.230;5.702;2023-07-13T13:11:22;22.60;99.90
23719;DHT22;43322;52.230;5.702;2023-07-13T13:13:50;22.20;99.90
23719;DHT22;43322;52.230;5.702;2023-07-13T13:16:21;21.80;99.90
23719;DHT22;43322;52.230;5.702;2023-07-13T13:18:49;21.80;99.90
23719;DHT22;43322;52.230;5.702;2023-07-13T13:21:17;21.80;99.90
23719;DHT22;43322;52.230;5.702;2023-07-13T13:23:45;21.60;99.90
23719;DHT22;43322;52.230;5.702;2023-07-13T13:26:13;21.60;99.90
23719;DHT22;43322;52.230;5.702;2023-07-13T13:28:41;22.20;99.90
23719;DHT22;43322;52.230;5.702;2023-07-13T13:31:10;23.10;99.90
23719;DHT22;43322;52.230;5.702;2023-07-13T13:33:39;23.30;99.90
23719;DHT22;43322;52.230;5.702;2023-07-13T13:36:13;22.50;99.90
23719;DHT22;43322;52.230;5.702;2023-07-13T13:38:41;22.10;99.90
23719;DHT22;43322;52.230;5.702;2023-07-13T13:41:10;21.60;99.90
23719;DHT22;43322;52.230;5.702;2023-07-13T13:43:37;21.50;99.90
23719;DHT22;43322;52.230;5.702;2023-07-13T13:46:13;21.80;99.90
23719;DHT22;43322;52.230;5.702;2023-07-13T13:48:43;21.90;99.90
23719;DHT22;43322;52.230;5.702;2023-07-13T13:51:14;21.80;99.90
23719;DHT22;43322;52.230;5.702;2023-07-13T13:53:41;21.40;99.90
23719;DHT22;43322;52.230;5.702;2023-07-13T13:56:09;21.10;99.90
23719;DHT22;43322;52.230;5.702;2023-07-13T13:58:35;21.10;99.90
23719;DHT22;43322;52.230;5.702;2023-07-13T14:01:03;21.60;99.90
23719;DHT22;43322;52.230;5.702;2023-07-13T14:03:33;22.10;99.90
23719;DHT22;43322;52.230;5.702;2023-07-13T14:06:02;22.30;99.90
23719;DHT22;43322;52.230;5.702;2023-07-13T14:08:29;22.90;99.90
23719;DHT22;43322;52.230;5.702;2023-07-13T14:10:57;23.70;99.90
23719;DHT22;43322;52.230;5.702;2023-07-13T14:13:28;24.40;99.90
23719;DHT22;43322;52.230;5.702;2023-07-13T14:15:55;24.90;99.90
23719;DHT22;43322;52.230;5.702;2023-07-13T14:18:22;25.40;99.90
23719;DHT22;43322;52.230;5.702;2023-07-13T14:20:49;24.60;99.90
23719;DHT22;43322;52.230;5.702;2023-07-13T14:23:19;23.90;99.90
23719;DHT22;43322;52.230;5.702;2023-07-13T14:25:46;23.40;99.90
23719;DHT22;43322;52.230;5.702;2023-07-13T14:28:21;23.80;99.90
23719;DHT22;43322;52.230;5.702;2023-07-13T14:30:49;23.70;99.90
23719;DHT22;43322;52.230;5.702;2023-07-13T14:33:16;23.00;99.90
23719;DHT22;43322;52.230;5.702;2023-07-13T14:35:43;22.50;99.90
23719;DHT22;43322;52.230;5.702;2023-07-13T14:38:13;22.40;99.90
23719;DHT22;43322;52.230;5.702;2023-07-13T14:40:43;22.40;99.90
23719;DHT22;43322;52.230;5.702;2023-07-13T14:43:11;23.50;99.90
23719;DHT22;43322;52.230;5.702;2023-07-13T14:45:41;24.60;99.90
23719;DHT22;43322;52.230;5.702;2023-07-13T14:48:17;25.30;99.90
23719;DHT22;43322;52.230;5.702;2023-07-13T14:50:45;24.50;99.90
23719;DHT22;43322;52.230;5.702;2023-07-13T14:53:13;24.10;99.90
23719;DHT22;43322;52.230;5.702;2023-07-13T14:55:40;24.10;99.90
23719;DHT22;43322;52.230;5.702;2023-07-13T14:58:09;24.90;99.90
23719;DHT22;43322;52.230;5.702;2023-07-13T15:00:37;24.60;99.90
23719;DHT22;43322;52.230;5.702;2023-07-13T15:03:05;24.80;99.90
23719;DHT22;43322;52.230;5.702;2023-07-13T15:05:33;25.20;99.90
23719;DHT22;43322;52.230;5.702;2023-07-13T15:08:02;24.60;99.90
23719;DHT22;43322;52.230;5.702;2023-07-13T15:10:31;24.10;99.90
23719;DHT22;43322;52.230;5.702;2023-07-13T15:13:00;23.50;99.90
23719;DHT22;43322;52.230;5.702;2023-07-13T15:15:32;23.20;99.90
23719;DHT22;43322;52.230;5.702;2023-07-13T15:18:00;23.20;99.90
23719;DHT22;43322;52.230;5.702;2023-07-13T15:20:29;24.00;99.90
23719;DHT22;43322;52.230;5.702;2023-07-13T15:22:57;24.50;99.90
23719;DHT22;43322;52.230;5.702;2023-07-13T15:25:26;24.00;99.90
23719;DHT22;43322;52.230;5.702;2023-07-13T15:27:55;24.20;99.90
23719;DHT22;43322;52.230;5.702;2023-07-13T15:30:22;24.90;99.90
23719;DHT22;43322;52.230;5.702;2023-07-13T15:32:53;24.70;99.90
23719;DHT22;43322;52.230;5.702;2023-07-13T15:35:22;24.80;99.90
23719;DHT22;43322;52.230;5.702;2023-07-13T15:37:49;25.50;99.90
23719;DHT22;43322;52.230;5.702;2023-07-13T15:40:16;25.50;99.90
23719;DHT22;43322;52.230;5.702;2023-07-13T15:42:47;25.60;99.90
23719;DHT22;43322;52.230;5.702;2023-07-13T15:45:16;25.40;99.90
23719;DHT22;43322;52.230;5.702;2023-07-13T15:47:44;25.20;99.90